createdAt,value
2019-02-15T00:01:14.059Z,0.09
2019-02-15T00:02:18.450Z,0.27
2019-02-15T00:03:21.393Z,0.27
2019-02-15T00:04:24.271Z,0.39
2019-02-15T00:05:27.086Z,0.36
2019-02-15T00:06:30.015Z,0.32
2019-02-15T00:07:32.815Z,0.35
2019-02-15T00:08:35.760Z,0.36
2019-02-15T00:09:38.589Z,0.22
2019-02-15T00:10:50.259Z,0.08
2019-02-15T00:11:53.631Z,0.24
2019-02-15T00:12:57.619Z,0.27
2019-02-15T00:14:08.040Z,0.24
2019-02-15T00:15:10.994Z,0.28
2019-02-15T00:16:14.902Z,0.21
2019-02-15T00:17:26.132Z,0.22
2019-02-15T00:18:43.878Z,0.15
2019-02-15T00:19:52.185Z,0.06
2019-02-15T00:21:13.786Z,0.06
2019-02-15T00:22:16.335Z,0.09
2019-02-15T00:23:25.144Z,0.09
2019-02-15T00:24:29.084Z,0.27
2019-02-15T00:25:32.207Z,0.28
2019-02-15T00:26:37.235Z,0.28
2019-02-15T00:27:42.790Z,0.13
2019-02-15T00:28:48.092Z,0.10
2019-02-15T00:29:52.656Z,0.07
2019-02-15T00:30:55.489Z,0.07
2019-02-15T00:31:58.757Z,0.02
2019-02-15T00:33:01.610Z,0.02
2019-02-15T00:34:07.446Z,0.07
2019-02-15T00:35:10.353Z,0.31
2019-02-15T00:36:22.367Z,0.36
2019-02-15T00:37:25.180Z,0.35
2019-02-15T00:38:28.325Z,0.35
2019-02-15T00:39:31.180Z,0.19
2019-02-15T00:40:36.124Z,0.12
2019-02-15T00:41:38.955Z,0.09
2019-02-15T00:42:41.790Z,0.11
2019-02-15T00:43:44.649Z,0.07
2019-02-15T00:44:47.927Z,-0.01
2019-02-15T00:45:59.663Z,-0.01
2019-02-15T00:47:26.829Z,0.06
2019-02-15T00:48:29.632Z,-0.02
2019-02-15T00:49:58.980Z,-0.02
2019-02-15T00:51:26.914Z,-0.02
2019-02-15T00:53:00.376Z,-0.02
2019-02-15T00:54:20.279Z,0.07
2019-02-15T00:55:41.847Z,0.07
2019-02-15T00:57:07.048Z,0.00
2019-02-15T00:58:18.174Z,-0.09
2019-02-15T00:59:37.972Z,-0.01
2019-02-15T01:00:49.659Z,0.01
2019-02-15T01:02:06.086Z,0.05
2019-02-15T01:03:46.221Z,0.08
2019-02-15T01:05:06.329Z,0.09
2019-02-15T01:06:30.754Z,0.21
2019-02-15T01:07:50.657Z,0.21
2019-02-15T01:08:59.414Z,0.36
2019-02-15T01:10:23.883Z,0.51
2019-02-15T01:11:37.388Z,0.57
2019-02-15T01:12:53.238Z,0.42
2019-02-15T01:13:56.120Z,0.33
2019-02-15T01:15:01.934Z,0.29
2019-02-15T01:16:05.379Z,0.33
2019-02-15T01:17:09.060Z,0.36
2019-02-15T01:18:11.934Z,0.45
2019-02-15T01:19:14.795Z,0.50
2019-02-15T01:20:17.712Z,0.50
2019-02-15T01:21:20.527Z,0.54
2019-02-15T01:22:23.832Z,0.54
2019-02-15T01:23:26.727Z,0.59
2019-02-15T01:24:31.829Z,0.61
2019-02-15T01:25:41.594Z,0.38
2019-02-15T01:26:49.337Z,0.38
2019-02-15T01:28:14.636Z,0.43
2019-02-15T01:29:44.782Z,0.44
2019-02-15T01:31:09.594Z,0.28
2019-02-15T01:32:34.691Z,0.30
2019-02-15T01:34:11.797Z,0.30
2019-02-15T01:35:42.319Z,0.20
2019-02-15T01:36:55.188Z,0.10
2019-02-15T01:38:19.655Z,0.15
2019-02-15T01:39:41.711Z,0.15
2019-02-15T01:41:03.302Z,0.15
2019-02-15T01:42:30.807Z,0.15
2019-02-15T01:43:51.450Z,0.08
2019-02-15T01:45:01.362Z,0.17
2019-02-15T01:46:11.571Z,0.17
2019-02-15T01:47:18.258Z,0.19
2019-02-15T01:48:21.149Z,0.28
2019-02-15T01:49:23.998Z,0.34
2019-02-15T01:50:26.827Z,0.36
2019-02-15T01:51:30.214Z,0.43
2019-02-15T01:52:33.000Z,0.42
2019-02-15T01:53:36.983Z,0.42
2019-02-15T01:54:39.840Z,0.36
2019-02-15T01:55:43.097Z,0.48
2019-02-15T01:56:45.956Z,0.59
2019-02-15T01:57:49.225Z,0.60
2019-02-15T01:58:52.059Z,0.60
2019-02-15T01:59:54.885Z,0.67
2019-02-15T02:00:57.729Z,0.68
2019-02-15T02:02:00.857Z,0.67
2019-02-15T02:03:03.819Z,0.67
2019-02-15T02:04:08.636Z,0.62
2019-02-15T02:05:13.136Z,0.58
2019-02-15T02:06:15.981Z,0.61
2019-02-15T02:07:18.793Z,0.61
2019-02-15T02:08:24.385Z,0.61
2019-02-15T02:09:27.214Z,0.61
2019-02-15T02:10:30.574Z,0.50
2019-02-15T02:11:33.847Z,0.47
2019-02-15T02:12:36.747Z,0.47
2019-02-15T02:13:49.065Z,0.48
2019-02-15T02:14:44.735Z,0.55
2019-02-15T02:15:48.862Z,0.55
2019-02-15T02:16:52.090Z,0.41
2019-02-15T02:17:54.977Z,0.34
2019-02-15T02:18:57.789Z,0.23
2019-02-15T02:20:00.622Z,0.06
2019-02-15T02:21:03.421Z,0.06
2019-02-15T02:22:06.309Z,0.03
2019-02-15T02:23:10.758Z,0.04
2019-02-15T02:24:13.560Z,0.06
2019-02-15T02:25:16.441Z,0.14
2019-02-15T02:26:19.620Z,0.24
2019-02-15T02:27:22.499Z,0.19
2019-02-15T02:28:25.425Z,0.07
2019-02-15T02:29:28.774Z,-0.05
2019-02-15T02:30:31.599Z,-0.14
2019-02-15T02:31:34.394Z,-0.24
2019-02-15T02:32:37.186Z,-0.26
2019-02-15T02:33:40.497Z,-0.26
2019-02-15T02:34:43.308Z,-0.18
2019-02-15T02:35:46.592Z,-0.18
2019-02-15T02:36:49.412Z,-0.18
2019-02-15T02:37:52.248Z,-0.17
2019-02-15T02:38:55.125Z,-0.21
2019-02-15T02:39:57.967Z,-0.12
2019-02-15T02:41:00.836Z,-0.12
2019-02-15T02:42:04.026Z,-0.18
2019-02-15T02:43:06.925Z,-0.18
2019-02-15T02:44:09.727Z,-0.33
2019-02-15T02:45:12.936Z,-0.27
2019-02-15T02:46:15.824Z,-0.24
2019-02-15T02:47:18.657Z,-0.27
2019-02-15T02:48:21.929Z,-0.23
2019-02-15T02:49:24.708Z,-0.10
2019-02-15T02:50:27.618Z,-0.05
2019-02-15T02:51:30.438Z,-0.16
2019-02-15T02:52:33.278Z,-0.22
2019-02-15T02:53:36.055Z,-0.22
2019-02-15T02:54:39.343Z,-0.32
2019-02-15T02:55:42.228Z,-0.33
2019-02-15T02:56:45.571Z,-0.27
2019-02-15T02:57:48.430Z,-0.16
2019-02-15T02:58:51.226Z,-0.08
2019-02-15T02:59:54.035Z,-0.08
2019-02-15T03:00:57.224Z,-0.02
2019-02-15T03:02:00.045Z,-0.08
2019-02-15T03:03:02.875Z,-0.14
2019-02-15T03:04:05.739Z,-0.29
2019-02-15T03:05:08.563Z,-0.40
2019-02-15T03:06:11.452Z,-0.40
2019-02-15T03:07:14.636Z,-0.44
2019-02-15T03:08:17.478Z,-0.35
2019-02-15T03:09:20.329Z,-0.35
2019-02-15T03:10:23.605Z,-0.31
2019-02-15T03:11:26.443Z,-0.35
2019-02-15T03:12:29.233Z,-0.42
2019-02-15T03:13:32.489Z,-0.48
2019-02-15T03:14:35.283Z,-0.58
2019-02-15T03:15:38.198Z,-0.56
2019-02-15T03:16:40.998Z,-0.54
2019-02-15T03:17:43.811Z,-0.51
2019-02-15T03:18:46.639Z,-0.51
2019-02-15T03:19:49.961Z,-0.59
2019-02-15T03:20:52.820Z,-0.56
2019-02-15T03:21:55.656Z,-0.56
2019-02-15T03:22:59.439Z,-0.56
2019-02-15T03:24:05.069Z,-0.52
2019-02-15T03:25:07.941Z,-0.53
2019-02-15T03:26:10.969Z,-0.42
2019-02-15T03:27:13.691Z,-0.34
2019-02-15T03:28:19.366Z,-0.34
2019-02-15T03:29:22.247Z,-0.41
2019-02-15T03:30:25.146Z,-0.54
2019-02-15T03:31:28.905Z,-0.56
2019-02-15T03:32:32.825Z,-0.54
2019-02-15T03:33:36.886Z,-0.54
2019-02-15T03:34:40.066Z,-0.70
2019-02-15T03:35:55.339Z,-0.70
2019-02-15T03:37:33.546Z,-0.63
2019-02-15T03:38:54.020Z,-0.63
2019-02-15T03:40:05.903Z,-0.72
2019-02-15T03:41:26.772Z,-0.69
2019-02-15T03:42:30.220Z,-0.69
2019-02-15T03:43:33.737Z,-0.78
2019-02-15T03:44:37.167Z,-0.71
2019-02-15T03:45:42.064Z,-0.64
2019-02-15T03:46:44.874Z,-0.63
2019-02-15T03:47:47.709Z,-0.64
2019-02-15T03:48:50.563Z,-0.72
2019-02-15T03:49:53.355Z,-0.70
2019-02-15T03:50:56.179Z,-0.64
2019-02-15T03:51:59.351Z,-0.70
2019-02-15T03:53:02.050Z,-0.69
2019-02-15T03:54:04.934Z,-0.67
2019-02-15T03:55:07.755Z,-0.79
2019-02-15T03:56:10.607Z,-0.76
2019-02-15T03:57:13.841Z,-0.76
2019-02-15T03:58:16.967Z,-0.76
2019-02-15T03:59:19.907Z,-0.76
2019-02-15T04:00:22.735Z,-0.93
2019-02-15T04:01:27.130Z,-0.92
2019-02-15T04:02:29.936Z,-0.92
2019-02-15T04:03:32.756Z,-0.85
2019-02-15T04:04:36.121Z,-0.90
2019-02-15T04:05:38.784Z,-0.98
2019-02-15T04:06:41.587Z,-0.96
2019-02-15T04:07:44.585Z,-0.96
2019-02-15T04:08:47.427Z,-0.82
2019-02-15T04:09:50.785Z,-0.74
2019-02-15T04:10:54.146Z,-0.74
2019-02-15T04:11:56.989Z,-0.93
2019-02-15T04:12:59.804Z,-0.93
2019-02-15T04:14:02.674Z,-0.93
2019-02-15T04:15:05.533Z,-0.86
2019-02-15T04:16:08.352Z,-0.86
2019-02-15T04:17:13.111Z,-0.85
2019-02-15T04:18:17.023Z,-0.82
2019-02-15T04:19:19.842Z,-0.81
2019-02-15T04:20:23.186Z,-0.86
2019-02-15T04:21:26.068Z,-0.91
2019-02-15T04:22:28.941Z,-0.92
2019-02-15T04:23:32.096Z,-0.78
2019-02-15T04:24:34.905Z,-0.85
2019-02-15T04:25:37.723Z,-0.85
2019-02-15T04:26:40.625Z,-0.79
2019-02-15T04:27:45.518Z,-0.75
2019-02-15T04:28:48.385Z,-0.71
2019-02-15T04:29:51.652Z,-0.66
2019-02-15T04:30:57.285Z,-0.66
2019-02-15T04:32:00.160Z,-0.57
2019-02-15T04:33:03.785Z,-0.54
2019-02-15T04:34:06.605Z,-0.63
2019-02-15T04:35:09.443Z,-0.63
2019-02-15T04:36:12.758Z,-0.83
2019-02-15T04:37:18.114Z,-0.92
2019-02-15T04:38:20.987Z,-0.92
2019-02-15T04:39:23.777Z,-0.98
2019-02-15T04:40:26.586Z,-0.82
2019-02-15T04:41:29.394Z,-0.78
2019-02-15T04:42:32.669Z,-0.78
2019-02-15T04:43:36.496Z,-0.70
2019-02-15T04:44:42.851Z,-0.76
2019-02-15T04:45:43.765Z,-0.79
2019-02-15T04:46:46.610Z,-0.79
2019-02-15T04:47:49.933Z,-0.70
2019-02-15T04:48:53.134Z,-0.70
2019-02-15T04:49:55.932Z,-0.69
2019-02-15T04:50:58.761Z,-0.67
2019-02-15T04:52:01.565Z,-0.68
2019-02-15T04:53:04.862Z,-0.70
2019-02-15T04:54:07.728Z,-0.69
2019-02-15T04:55:11.075Z,-0.73
2019-02-15T04:56:13.909Z,-0.79
2019-02-15T04:57:16.707Z,-0.75
2019-02-15T04:58:30.683Z,-0.80
2019-02-15T04:59:33.519Z,-0.98
2019-02-15T05:00:36.321Z,-0.98
2019-02-15T05:01:39.513Z,-1.08
2019-02-15T05:02:42.362Z,-1.06
2019-02-15T05:03:45.657Z,-0.93
2019-02-15T05:04:48.490Z,-0.93
2019-02-15T05:05:51.300Z,-0.80
2019-02-15T05:06:54.209Z,-0.70
2019-02-15T05:07:59.121Z,-0.69
2019-02-15T05:09:06.926Z,-0.69
2019-02-15T05:10:09.862Z,-0.62
2019-02-15T05:11:12.541Z,-0.54
2019-02-15T05:12:16.916Z,-0.54
2019-02-15T05:13:19.649Z,-0.60
2019-02-15T05:14:23.472Z,-0.69
2019-02-15T05:15:26.876Z,-0.79
2019-02-15T05:16:29.675Z,-0.78
2019-02-15T05:17:32.463Z,-0.87
2019-02-15T05:18:35.304Z,-0.87
2019-02-15T05:19:38.165Z,-0.91
2019-02-15T05:20:41.469Z,-0.88
2019-02-15T05:21:44.729Z,-0.87
2019-02-15T05:22:48.022Z,-0.79
2019-02-15T05:23:50.843Z,-0.85
2019-02-15T05:24:53.673Z,-0.92
2019-02-15T05:25:56.506Z,-1.01
2019-02-15T05:26:59.672Z,-1.06
2019-02-15T05:28:02.678Z,-1.06
2019-02-15T05:29:05.480Z,-1.07
2019-02-15T05:30:10.144Z,-1.03
2019-02-15T05:31:12.942Z,-1.03
2019-02-15T05:32:15.798Z,-1.10
2019-02-15T05:33:19.298Z,-1.18
2019-02-15T05:34:22.106Z,-1.18
2019-02-15T05:35:25.005Z,-1.18
2019-02-15T05:36:27.827Z,-1.26
2019-02-15T05:37:30.641Z,-1.32
2019-02-15T05:38:33.498Z,-1.30
2019-02-15T05:39:36.647Z,-1.27
2019-02-15T05:40:39.513Z,-1.35
2019-02-15T05:41:42.601Z,-1.29
2019-02-15T05:42:45.343Z,-1.29
2019-02-15T05:43:48.217Z,-1.16
2019-02-15T05:44:51.114Z,-1.07
2019-02-15T05:45:54.385Z,-1.09
2019-02-15T05:46:57.200Z,-1.19
2019-02-15T05:48:01.157Z,-1.31
2019-02-15T05:49:04.037Z,-1.33
2019-02-15T05:50:07.004Z,-1.29
2019-02-15T05:51:10.151Z,-1.29
2019-02-15T05:52:13.386Z,-1.07
2019-02-15T05:53:16.249Z,-1.08
2019-02-15T05:54:20.068Z,-1.10
2019-02-15T05:55:23.241Z,-1.08
2019-02-15T05:56:26.208Z,-1.06
2019-02-15T05:57:28.935Z,-1.06
2019-02-15T05:58:32.256Z,-1.10
2019-02-15T05:59:35.203Z,-1.15
2019-02-15T06:00:37.997Z,-1.20
2019-02-15T06:01:40.825Z,-1.29
2019-02-15T06:02:44.009Z,-1.36
2019-02-15T06:03:47.320Z,-1.33
2019-02-15T06:04:51.781Z,-1.22
2019-02-15T06:05:54.668Z,-1.15
2019-02-15T06:06:57.516Z,-1.15
2019-02-15T06:08:01.360Z,-1.24
2019-02-15T06:09:05.243Z,-1.37
2019-02-15T06:10:08.138Z,-1.37
2019-02-15T06:11:11.450Z,-1.31
2019-02-15T06:12:14.304Z,-1.40
2019-02-15T06:13:17.187Z,-1.40
2019-02-15T06:14:20.036Z,-1.37
2019-02-15T06:15:25.719Z,-1.37
2019-02-15T06:16:29.803Z,-1.36
2019-02-15T06:17:32.981Z,-1.40
2019-02-15T06:18:35.872Z,-1.44
2019-02-15T06:19:38.769Z,-1.44
2019-02-15T06:20:41.581Z,-1.50
2019-02-15T06:21:44.795Z,-1.52
2019-02-15T06:22:47.636Z,-1.49
2019-02-15T06:23:50.884Z,-1.50
2019-02-15T06:24:53.739Z,-1.62
2019-02-15T06:25:56.630Z,-1.58
2019-02-15T06:27:02.408Z,-1.64
2019-02-15T06:28:07.304Z,-1.54
2019-02-15T06:29:10.118Z,-1.49
2019-02-15T06:43:51.429Z,-1.36
2019-02-15T06:45:13.411Z,-1.34
2019-02-15T06:46:23.122Z,-1.29
2019-02-15T06:47:25.937Z,-1.28
2019-02-15T06:48:28.922Z,-1.25
2019-02-15T06:49:32.318Z,-1.25
2019-02-15T06:50:35.351Z,-1.27
2019-02-15T06:51:38.162Z,-1.25
2019-02-15T06:52:40.975Z,-1.28
2019-02-15T06:53:43.874Z,-1.26
2019-02-15T06:54:46.782Z,-1.28
2019-02-15T06:55:49.926Z,-1.21
2019-02-15T06:56:53.086Z,-1.25
2019-02-15T06:57:55.974Z,-1.25
2019-02-15T06:59:26.573Z,-1.36
2019-02-15T07:01:06.528Z,-1.35
2019-02-15T07:02:30.421Z,-1.23
2019-02-15T07:03:48.467Z,-1.08
2019-02-15T07:05:03.147Z,-0.93
2019-02-15T07:06:11.178Z,-0.78
2019-02-15T07:07:14.002Z,-0.58
2019-02-15T07:08:17.297Z,-0.58
2019-02-15T07:09:20.590Z,-0.44
2019-02-15T07:10:23.485Z,-0.28
2019-02-15T07:11:29.309Z,0.19
2019-02-15T07:12:32.181Z,0.41
2019-02-15T07:13:40.112Z,0.41
2019-02-15T07:14:43.705Z,0.73
2019-02-15T07:15:48.807Z,0.89
2019-02-15T07:16:51.406Z,0.96
2019-02-15T07:17:54.229Z,0.97
2019-02-15T07:18:57.084Z,0.97
2019-02-15T07:20:00.042Z,1.03
2019-02-15T07:21:04.815Z,1.39
2019-02-15T07:22:14.057Z,1.63
2019-02-15T07:23:16.665Z,1.67
2019-02-15T07:24:19.508Z,-140.42
2019-02-15T07:25:23.545Z,-79.31
2019-02-15T07:26:26.425Z,-140.42
2019-02-15T07:27:29.331Z,-140.42
2019-02-15T07:28:32.181Z,2.58
2019-02-15T07:29:37.307Z,2.69
2019-02-15T07:30:40.184Z,2.77
2019-02-15T07:31:44.615Z,2.69
2019-02-15T07:32:47.766Z,2.36
2019-02-15T07:33:50.917Z,2.44
2019-02-15T07:34:53.747Z,2.25
2019-02-15T07:35:59.040Z,2.24
2019-02-15T07:37:02.039Z,2.34
2019-02-15T07:38:09.000Z,2.39
2019-02-15T07:39:12.666Z,2.39
2019-02-15T07:40:16.135Z,2.36
2019-02-15T07:41:19.032Z,2.74
2019-02-15T07:42:21.888Z,2.74
2019-02-15T07:43:24.706Z,2.79
2019-02-15T07:44:28.012Z,2.94
2019-02-15T07:45:30.907Z,2.91
2019-02-15T07:46:35.303Z,2.97
2019-02-15T07:47:42.221Z,2.89
2019-02-15T07:48:46.385Z,2.87
2019-02-15T07:49:49.206Z,3.08
2019-02-15T07:50:55.316Z,3.27
2019-02-15T07:51:58.125Z,3.27
2019-02-15T07:53:04.536Z,3.42
2019-02-15T07:54:10.534Z,3.59
2019-02-15T07:55:13.380Z,3.84
2019-02-15T07:56:16.223Z,3.84
2019-02-15T07:57:19.037Z,4.12
2019-02-15T07:58:24.955Z,4.16
2019-02-15T07:59:28.205Z,4.13
2019-02-15T08:00:31.086Z,4.06
2019-02-15T08:01:43.251Z,4.16
2019-02-15T08:02:51.191Z,4.47
2019-02-15T08:04:01.084Z,4.51
2019-02-15T08:05:05.552Z,4.51
2019-02-15T08:06:15.257Z,4.55
2019-02-15T08:07:15.388Z,4.36
2019-02-15T08:08:22.858Z,5.00
2019-02-15T08:09:26.329Z,5.15
2019-02-15T08:10:29.595Z,5.43
2019-02-15T08:11:32.413Z,5.38
2019-02-15T08:12:36.769Z,5.47
2019-02-15T08:13:39.702Z,5.47
2019-02-15T08:14:42.581Z,5.67
2019-02-15T08:15:52.028Z,5.67
2019-02-15T08:16:54.953Z,5.63
2019-02-15T08:17:59.443Z,5.51
2019-02-15T08:19:02.366Z,5.74
2019-02-15T08:20:05.206Z,5.86
2019-02-15T08:21:08.115Z,5.86
2019-02-15T08:22:11.479Z,6.15
2019-02-15T08:23:14.387Z,6.33
2019-02-15T08:24:17.641Z,6.16
2019-02-15T08:25:20.601Z,6.38
2019-02-15T08:26:23.666Z,6.60
2019-02-15T08:27:26.614Z,6.60
2019-02-15T08:28:32.014Z,6.89
2019-02-15T08:29:36.814Z,7.19
2019-02-15T08:30:48.977Z,7.32
2019-02-15T08:31:54.777Z,7.57
2019-02-15T08:33:00.971Z,7.48
2019-02-15T08:34:03.830Z,7.55
2019-02-15T08:35:06.674Z,7.36
2019-02-15T08:36:24.837Z,7.45
2019-02-15T08:37:27.753Z,7.70
2019-02-15T08:38:30.647Z,7.92
2019-02-15T08:39:33.472Z,8.37
2019-02-15T08:40:37.602Z,8.44
2019-02-15T08:41:41.094Z,8.45
2019-02-15T08:42:44.313Z,8.46
2019-02-15T08:43:47.244Z,8.46
2019-02-15T08:44:57.771Z,8.19
2019-02-15T08:46:03.311Z,8.58
2019-02-15T08:47:08.245Z,8.58
2019-02-15T08:48:11.798Z,8.55
2019-02-15T08:49:16.282Z,8.66
2019-02-15T08:50:27.924Z,8.75
2019-02-15T08:51:32.818Z,8.71
2019-02-15T08:52:38.289Z,9.00
2019-02-15T08:53:41.271Z,9.20
2019-02-15T08:54:46.675Z,9.40
2019-02-15T08:55:49.806Z,9.40
2019-02-15T08:56:53.053Z,9.33
2019-02-15T08:57:58.023Z,9.64
2019-02-15T08:59:02.000Z,9.59
2019-02-15T09:00:06.804Z,9.67
2019-02-15T09:01:09.765Z,9.81
2019-02-15T09:02:21.699Z,9.80
2019-02-15T09:03:26.004Z,10.14
2019-02-15T09:04:30.895Z,10.33
2019-02-15T09:05:33.550Z,10.37
2019-02-15T09:06:36.845Z,10.53
2019-02-15T09:07:40.965Z,10.73
2019-02-15T09:08:44.094Z,10.73
2019-02-15T09:09:49.586Z,11.13
2019-02-15T09:10:54.358Z,11.13
2019-02-15T09:11:57.390Z,11.22
2019-02-15T09:13:00.315Z,11.22
2019-02-15T09:14:06.103Z,10.75
2019-02-15T09:15:09.272Z,10.75
2019-02-15T09:16:13.268Z,11.27
2019-02-15T09:17:19.073Z,11.02
2019-02-15T09:18:21.848Z,11.02
2019-02-15T09:19:24.731Z,10.78
2019-02-15T09:20:29.061Z,10.90
2019-02-15T09:21:32.180Z,11.15
2019-02-15T09:22:35.004Z,11.65
2019-02-15T09:23:40.274Z,11.65
2019-02-15T09:24:43.750Z,11.27
2019-02-15T09:25:46.627Z,11.53
2019-02-15T09:26:50.072Z,11.98
2019-02-15T09:28:12.002Z,11.98
2019-02-15T09:29:16.723Z,12.13
2019-02-15T09:30:23.513Z,12.52
2019-02-15T09:31:26.367Z,12.52
2019-02-15T09:32:29.231Z,12.46
2019-02-15T09:33:34.354Z,12.49
2019-02-15T09:34:41.317Z,12.49
2019-02-15T09:35:44.166Z,13.40
2019-02-15T09:36:48.350Z,13.54
2019-02-15T09:37:51.269Z,13.34
2019-02-15T09:38:57.652Z,13.02
2019-02-15T09:40:03.023Z,13.01
2019-02-15T09:41:05.425Z,13.01
2019-02-15T09:42:13.245Z,13.92
2019-02-15T09:43:16.408Z,14.73
2019-02-15T09:44:23.283Z,15.10
2019-02-15T09:45:26.214Z,15.25
2019-02-15T09:46:29.165Z,14.57
2019-02-15T09:47:32.005Z,14.01
2019-02-15T09:48:36.646Z,14.34
2019-02-15T09:49:42.753Z,14.23
2019-02-15T09:50:45.983Z,14.18
2019-02-15T09:51:49.131Z,14.18
2019-02-15T09:52:53.637Z,14.37
2019-02-15T09:53:56.585Z,14.29
2019-02-15T09:54:59.804Z,14.84
2019-02-15T09:56:02.683Z,15.07
2019-02-15T09:57:05.854Z,13.80
2019-02-15T09:58:10.538Z,13.48
2019-02-15T09:59:16.662Z,13.48
2019-02-15T10:00:20.451Z,14.39
2019-02-15T10:01:26.437Z,14.39
2019-02-15T10:02:32.445Z,15.03
2019-02-15T10:03:35.299Z,15.67
2019-02-15T10:04:38.907Z,14.93
2019-02-15T10:05:47.791Z,14.08
2019-02-15T10:06:50.668Z,13.79
2019-02-15T10:07:59.620Z,13.50
2019-02-15T10:09:02.550Z,13.45
2019-02-15T10:10:05.513Z,13.45
2019-02-15T10:11:08.700Z,13.91
2019-02-15T10:12:11.560Z,13.91
2019-02-15T10:13:14.411Z,13.83
2019-02-15T10:14:17.244Z,13.33
2019-02-15T10:15:20.397Z,13.36
2019-02-15T10:16:29.802Z,13.20
2019-02-15T10:17:27.823Z,13.20
2019-02-15T10:18:30.706Z,13.90
2019-02-15T10:19:33.546Z,13.99
2019-02-15T10:20:46.130Z,13.99
2019-02-15T10:21:50.279Z,13.99
2019-02-15T10:22:53.635Z,14.35
2019-02-15T10:23:56.412Z,15.01
2019-02-15T10:25:05.334Z,14.91
2019-02-15T10:26:06.544Z,14.73
2019-02-15T10:27:09.416Z,14.44
2019-02-15T10:28:12.242Z,14.44
2019-02-15T10:29:16.798Z,14.22
2019-02-15T10:30:19.695Z,14.65
2019-02-15T10:31:22.618Z,14.58
2019-02-15T10:32:25.447Z,14.58
2019-02-15T10:33:31.155Z,14.33
2019-02-15T10:34:34.748Z,14.55
2019-02-15T10:35:40.111Z,14.39
2019-02-15T10:36:43.104Z,14.39
2019-02-15T10:37:46.009Z,14.93
2019-02-15T10:38:48.943Z,14.93
2019-02-15T10:39:51.723Z,15.20
2019-02-15T10:40:54.600Z,15.50
2019-02-15T10:41:58.267Z,15.35
2019-02-15T10:43:01.242Z,15.34
2019-02-15T10:44:07.846Z,16.67
2019-02-15T10:45:11.564Z,16.44
2019-02-15T10:46:15.742Z,16.40
2019-02-15T10:47:24.687Z,16.09
2019-02-15T10:48:23.335Z,15.51
2019-02-15T10:49:26.344Z,15.51
2019-02-15T10:50:30.187Z,15.16
2019-02-15T10:51:33.809Z,14.64
2019-02-15T10:52:39.729Z,14.64
2019-02-15T10:53:49.224Z,14.84
2019-02-15T10:54:51.230Z,15.33
2019-02-15T10:55:54.627Z,15.54
2019-02-15T10:56:57.692Z,15.72
2019-02-15T10:58:00.594Z,15.72
2019-02-15T10:59:03.683Z,15.76
2019-02-15T11:00:07.067Z,16.07
2019-02-15T11:01:10.165Z,15.62
2019-02-15T11:02:14.208Z,15.30
2019-02-15T11:03:16.999Z,15.30
2019-02-15T11:04:22.626Z,15.20
2019-02-15T11:05:26.000Z,15.79
2019-02-15T11:06:29.891Z,16.46
2019-02-15T11:07:32.842Z,16.39
2019-02-15T11:08:35.886Z,16.63
2019-02-15T11:09:38.564Z,16.99
2019-02-15T11:10:41.696Z,16.22
2019-02-15T11:11:44.714Z,15.60
2019-02-15T11:12:47.550Z,15.79
2019-02-15T11:13:50.206Z,15.79
2019-02-15T11:14:53.223Z,15.26
2019-02-15T11:15:56.176Z,15.79
2019-02-15T11:16:58.990Z,15.40
2019-02-15T11:18:02.109Z,15.24
2019-02-15T11:19:05.463Z,14.92
2019-02-15T11:20:11.498Z,14.99
2019-02-15T11:21:15.462Z,14.99
2019-02-15T11:22:18.789Z,15.49
2019-02-15T11:23:23.243Z,15.76
2019-02-15T11:24:26.033Z,15.94
2019-02-15T11:25:29.067Z,16.24
2019-02-15T11:26:33.827Z,16.27
2019-02-15T11:27:39.448Z,16.27
2019-02-15T11:28:42.203Z,15.17
2019-02-15T11:29:45.210Z,15.56
2019-02-15T11:42:54.911Z,15.94
2019-02-15T11:43:58.368Z,15.94
2019-02-15T11:45:01.303Z,16.52
2019-02-15T11:46:05.720Z,16.43
2019-02-15T11:47:09.441Z,16.66
2019-02-15T11:48:12.866Z,16.58
2019-02-15T11:49:15.844Z,16.95
2019-02-15T11:50:19.642Z,16.57
2019-02-15T11:51:22.373Z,16.26
2019-02-15T11:52:25.241Z,16.31
2019-02-15T11:53:28.300Z,16.12
2019-02-15T11:54:36.957Z,16.67
2019-02-15T11:55:39.484Z,16.67
2019-02-15T11:56:42.623Z,17.13
2019-02-15T11:57:45.453Z,17.05
2019-02-15T11:58:48.110Z,16.48
2019-02-15T11:59:50.903Z,16.45
2019-02-15T12:00:54.203Z,16.85
2019-02-15T12:02:05.857Z,16.85
2019-02-15T12:03:03.948Z,17.03
2019-02-15T12:04:06.959Z,17.03
2019-02-15T12:05:11.695Z,17.53
2019-02-15T12:06:16.012Z,18.18
2019-02-15T12:07:19.973Z,17.70
2019-02-15T12:08:22.789Z,17.34
2019-02-15T12:09:25.617Z,17.34
2019-02-15T12:10:32.695Z,17.83
2019-02-15T12:11:36.834Z,18.01
2019-02-15T12:12:40.260Z,17.75
2019-02-15T12:13:46.210Z,18.21
2019-02-15T12:14:52.543Z,18.58
2019-02-15T12:15:56.730Z,17.82
2019-02-15T12:17:05.486Z,-89.67
2019-02-15T12:18:04.163Z,17.68
2019-02-15T12:19:13.278Z,18.33
2019-02-15T12:20:15.930Z,18.67
2019-02-15T12:21:18.787Z,18.67
2019-02-15T12:22:21.537Z,18.29
2019-02-15T12:23:24.245Z,17.76
2019-02-15T12:24:27.031Z,17.58
2019-02-15T12:25:30.055Z,17.58
2019-02-15T12:26:32.809Z,17.55
2019-02-15T12:27:35.554Z,17.60
2019-02-15T12:28:40.534Z,17.63
2019-02-15T12:29:43.192Z,17.63
2019-02-15T12:30:46.138Z,17.05
2019-02-15T12:31:48.890Z,17.18
2019-02-15T12:32:51.596Z,17.18
2019-02-15T12:33:57.266Z,17.18
2019-02-15T12:35:19.014Z,17.18
2019-02-15T12:36:22.021Z,17.47
2019-02-15T12:37:26.539Z,17.99
2019-02-15T12:38:29.187Z,17.92
2019-02-15T12:39:32.876Z,17.17
2019-02-15T12:40:35.570Z,17.22
2019-02-15T12:41:38.578Z,17.53
2019-02-15T12:42:41.922Z,17.53
2019-02-15T12:43:44.758Z,17.97
2019-02-15T12:44:47.510Z,18.01
2019-02-15T12:45:50.158Z,17.62
2019-02-15T12:46:57.122Z,17.47
2019-02-15T12:48:00.517Z,17.70
2019-02-15T12:49:03.186Z,17.61
2019-02-15T12:50:08.337Z,17.36
2019-02-15T12:51:11.389Z,17.51
2019-02-15T12:52:14.220Z,17.51
2019-02-15T12:53:18.397Z,18.08
2019-02-15T12:54:21.685Z,17.52
2019-02-15T12:55:28.479Z,18.03
2019-02-15T12:56:34.473Z,18.03
2019-02-15T12:57:37.133Z,18.58
2019-02-15T12:58:39.830Z,18.39
2019-02-15T12:59:42.640Z,17.79
2019-02-15T13:00:45.780Z,17.92
2019-02-15T13:01:48.530Z,17.93
2019-02-15T13:02:51.194Z,17.93
2019-02-15T13:03:53.865Z,17.45
2019-02-15T13:04:56.740Z,17.04
2019-02-15T13:05:59.406Z,17.04
2019-02-15T13:07:06.940Z,17.24
2019-02-15T13:08:10.567Z,18.17
2019-02-15T13:09:13.369Z,17.95
2019-02-15T13:10:17.604Z,17.95
2019-02-15T13:11:24.806Z,17.90
2019-02-15T13:12:27.746Z,18.07
2019-02-15T13:13:30.901Z,18.07
2019-02-15T13:14:33.575Z,17.35
2019-02-15T13:15:36.401Z,17.61
2019-02-15T13:16:39.237Z,17.64
2019-02-15T13:17:41.904Z,17.74
2019-02-15T13:18:44.745Z,18.19
2019-02-15T13:19:48.222Z,18.20
2019-02-15T13:20:53.475Z,18.20
2019-02-15T13:22:00.926Z,17.93
2019-02-15T13:23:03.643Z,18.16
2019-02-15T13:24:07.617Z,18.35
2019-02-15T13:25:12.759Z,18.35
2019-02-15T13:26:16.234Z,17.80
2019-02-15T13:27:20.989Z,17.78
2019-02-15T13:28:26.092Z,17.38
2019-02-15T13:29:32.745Z,17.50
2019-02-15T13:30:35.943Z,17.42
2019-02-15T13:31:42.417Z,17.62
2019-02-15T13:32:46.245Z,17.82
2019-02-15T13:33:49.163Z,17.66
2019-02-15T13:34:53.344Z,17.66
2019-02-15T13:36:03.511Z,18.04
2019-02-15T13:37:06.672Z,17.93
2019-02-15T13:38:14.717Z,17.93
2019-02-15T13:39:17.748Z,17.98
2019-02-15T13:40:20.545Z,17.98
2019-02-15T13:41:25.558Z,18.00
2019-02-15T13:42:31.202Z,17.85
2019-02-15T13:43:36.919Z,17.34
2019-02-15T13:44:42.063Z,17.71
2019-02-15T13:45:49.450Z,17.71
2019-02-15T13:46:52.726Z,18.10
2019-02-15T13:48:00.228Z,17.44
2019-02-15T13:49:05.080Z,17.44
2019-02-15T13:50:07.972Z,17.93
2019-02-15T13:51:11.346Z,17.47
2019-02-15T13:52:14.361Z,17.81
2019-02-15T13:53:17.248Z,17.81
2019-02-15T13:54:19.904Z,18.00
2019-02-15T13:55:25.739Z,18.00
2019-02-15T13:56:32.477Z,17.75
2019-02-15T13:57:38.188Z,17.21
2019-02-15T13:58:41.759Z,17.03
2019-02-15T13:59:46.786Z,17.43
2019-02-15T14:00:49.677Z,17.43
2019-02-15T14:01:55.208Z,17.16
2019-02-15T14:02:58.233Z,17.87
2019-02-15T14:04:04.537Z,17.72
2019-02-15T14:05:09.605Z,17.72
2019-02-15T14:06:14.130Z,17.39
2019-02-15T14:07:24.053Z,17.07
2019-02-15T14:08:34.545Z,16.91
2019-02-15T14:09:37.427Z,17.03
2019-02-15T14:10:40.720Z,17.09
2019-02-15T14:11:43.522Z,17.27
2019-02-15T14:12:46.785Z,17.83
2019-02-15T14:13:49.439Z,17.93
2019-02-15T14:14:52.413Z,17.93
2019-02-15T14:15:58.292Z,18.20
2019-02-15T14:17:01.626Z,17.82
2019-02-15T14:18:07.531Z,17.70
2019-02-15T14:19:10.323Z,17.87
2019-02-15T14:20:19.005Z,18.02
2019-02-15T14:21:19.430Z,18.19
2019-02-15T14:22:25.383Z,17.91
2019-02-15T14:23:28.796Z,17.90
2019-02-15T14:24:31.838Z,17.84
2019-02-15T14:25:38.081Z,17.52
2019-02-15T14:26:40.998Z,16.92
2019-02-15T14:27:43.946Z,16.81
2019-02-15T14:28:47.962Z,17.12
2019-02-15T14:29:51.454Z,17.12
2019-02-15T14:30:57.320Z,17.91